createdAt,value
2023-04-01T00:02:18.322Z,100.00
2023-04-01T00:05:20.480Z,100.00
2023-04-01T00:08:22.840Z,100.00
2023-04-01T00:11:25.133Z,100.00
2023-04-01T00:14:27.293Z,100.00
2023-04-01T00:17:29.831Z,100.00
2023-04-01T00:20:32.100Z,100.00
2023-04-01T00:23:34.648Z,100.00
2023-04-01T00:26:36.813Z,100.00
2023-04-01T00:29:39.407Z,100.00
2023-04-01T00:32:42.041Z,100.00
2023-04-01T00:35:45.888Z,100.00
2023-04-01T00:38:48.779Z,100.00
2023-04-01T00:41:51.167Z,100.00
2023-04-01T00:44:54.470Z,100.00
2023-04-01T00:47:57.603Z,100.00
2023-04-01T00:51:11.121Z,100.00
2023-04-01T00:54:15.283Z,100.00
2023-04-01T00:57:23.127Z,100.00
2023-04-01T01:00:25.488Z,100.00
2023-04-01T01:03:28.467Z,100.00
2023-04-01T01:06:58.412Z,100.00
2023-04-01T01:10:01.259Z,100.00
2023-04-01T01:13:06.542Z,100.00
2023-04-01T01:16:16.635Z,100.00
2023-04-01T01:19:38.234Z,100.00
2023-04-01T01:22:47.636Z,100.00
2023-04-01T01:26:00.263Z,100.00
2023-04-01T01:29:06.006Z,100.00
2023-04-01T01:32:08.789Z,100.00
2023-04-01T01:35:11.915Z,100.00
2023-04-01T01:38:16.644Z,100.00
2023-04-01T01:41:20.428Z,100.00
2023-04-01T01:44:23.413Z,100.00
2023-04-01T01:47:27.190Z,100.00
2023-04-01T01:50:30.047Z,100.00
2023-04-01T01:53:32.825Z,100.00
2023-04-01T01:56:37.442Z,100.00
2023-04-01T01:59:42.161Z,100.00
2023-04-01T02:02:47.486Z,100.00
2023-04-01T02:05:52.647Z,100.00
2023-04-01T02:08:58.302Z,100.00
2023-04-01T02:12:02.665Z,100.00
2023-04-01T02:15:09.657Z,100.00
2023-04-01T02:18:14.080Z,100.00
2023-04-01T02:21:17.343Z,100.00
2023-04-01T02:24:23.598Z,100.00
2023-04-01T02:27:26.890Z,100.00
2023-04-01T02:30:31.219Z,100.00
2023-04-01T02:33:34.315Z,100.00
2023-04-01T02:36:38.060Z,100.00
2023-04-01T02:39:40.799Z,100.00
2023-04-01T02:42:43.935Z,100.00
2023-04-01T02:45:47.449Z,100.00
2023-04-01T02:48:50.026Z,100.00
2023-04-01T02:51:53.418Z,100.00
2023-04-01T02:54:56.471Z,100.00
2023-04-01T02:57:59.093Z,100.00
2023-04-01T03:01:01.932Z,100.00
2023-04-01T03:04:04.985Z,100.00
2023-04-01T03:07:08.386Z,100.00
2023-04-01T03:10:11.344Z,100.00
2023-04-01T03:13:14.563Z,100.00
2023-04-01T03:16:17.381Z,100.00
2023-04-01T03:19:20.749Z,100.00
2023-04-01T03:22:23.859Z,100.00
2023-04-01T03:25:26.794Z,100.00
2023-04-01T03:28:29.627Z,100.00
2023-04-01T03:31:32.538Z,100.00
2023-04-01T03:34:35.103Z,100.00
2023-04-01T03:37:37.876Z,100.00
2023-04-01T03:40:43.890Z,100.00
2023-04-01T03:43:46.587Z,100.00
2023-04-01T03:46:49.215Z,100.00
2023-04-01T03:49:53.014Z,100.00
2023-04-01T03:52:56.221Z,100.00
2023-04-01T03:55:59.093Z,100.00
2023-04-01T03:59:03.576Z,100.00
2023-04-01T04:02:07.040Z,100.00
2023-04-01T04:05:09.763Z,100.00
2023-04-01T04:08:12.258Z,100.00
2023-04-01T04:11:15.284Z,100.00
2023-04-01T04:14:18.545Z,100.00
2023-04-01T04:17:21.215Z,100.00
2023-04-01T04:20:23.597Z,100.00
2023-04-01T04:23:26.135Z,100.00
2023-04-01T04:26:29.082Z,100.00
2023-04-01T04:29:31.621Z,100.00
2023-04-01T04:32:34.228Z,100.00
2023-04-01T04:35:36.759Z,100.00
2023-04-01T04:38:39.237Z,100.00
2023-04-01T04:41:41.984Z,100.00
2023-04-01T04:44:44.314Z,100.00
2023-04-01T04:47:46.945Z,100.00
2023-04-01T04:50:50.641Z,100.00
2023-04-01T04:53:53.515Z,100.00
2023-04-01T04:56:57.017Z,100.00
2023-04-01T04:59:59.721Z,100.00
2023-04-01T05:03:03.062Z,100.00
2023-04-01T05:06:09.533Z,100.00
2023-04-01T05:09:12.435Z,100.00
2023-04-01T05:12:15.516Z,100.00
2023-04-01T05:15:18.402Z,100.00
2023-04-01T05:18:21.390Z,100.00
2023-04-01T05:21:23.668Z,100.00
2023-04-01T05:24:26.345Z,100.00
2023-04-01T05:27:29.051Z,98.68
2023-04-01T05:30:31.455Z,95.08
2023-04-01T05:33:34.203Z,91.53
2023-04-01T05:36:37.031Z,89.25
2023-04-01T05:39:40.331Z,89.65
2023-04-01T05:42:42.976Z,90.17
2023-04-01T05:45:45.731Z,86.81
2023-04-01T05:48:48.766Z,86.50
2023-04-01T05:51:52.606Z,88.61
2023-04-01T05:54:55.564Z,84.80
2023-04-01T05:57:58.221Z,82.61
2023-04-01T06:01:15.956Z,82.96
2023-04-01T06:04:19.585Z,81.59
2023-04-01T06:07:22.371Z,82.74
2023-04-01T06:10:38.682Z,80.54
2023-04-01T06:14:00.502Z,80.00
2023-04-01T06:17:18.223Z,79.16
2023-04-01T06:20:26.745Z,80.62
2023-04-01T06:23:38.145Z,81.90
2023-04-01T06:26:56.533Z,80.78
2023-04-01T06:30:20.325Z,82.19
2023-04-01T06:33:35.970Z,79.92
2023-04-01T06:36:53.743Z,79.49
2023-04-01T06:39:59.696Z,72.17
2023-04-01T06:43:35.645Z,70.56
2023-04-01T06:46:45.388Z,65.29
2023-04-01T06:49:48.400Z,67.16
2023-04-01T06:52:58.028Z,68.01
2023-04-01T06:56:08.366Z,64.62
2023-04-01T06:59:11.600Z,60.62
2023-04-01T07:02:17.057Z,58.25
2023-04-01T07:05:21.190Z,58.48
2023-04-01T07:08:28.060Z,57.13
2023-04-01T07:11:33.071Z,58.00
2023-04-01T07:14:38.330Z,56.04
2023-04-01T07:17:43.606Z,55.33
2023-04-01T07:20:47.994Z,56.85
2023-04-01T07:23:53.251Z,57.65
2023-04-01T07:26:57.845Z,56.86
2023-04-01T07:30:03.499Z,58.80
2023-04-01T07:33:11.916Z,59.52
2023-04-01T07:36:27.204Z,58.05
2023-04-01T07:39:42.579Z,55.84
2023-04-01T07:42:45.597Z,51.35
2023-04-01T07:46:05.734Z,51.99
2023-04-01T07:49:13.997Z,55.96
2023-04-01T07:52:24.139Z,57.82
2023-04-01T07:55:45.665Z,62.39
2023-04-01T07:58:55.237Z,62.65
2023-04-01T08:02:12.775Z,63.29
2023-04-01T08:05:29.061Z,63.65
2023-04-01T08:08:38.879Z,62.67
2023-04-01T08:11:48.562Z,64.02
2023-04-01T08:14:57.732Z,63.44
2023-04-01T08:18:08.349Z,65.81
2023-04-01T08:21:22.759Z,66.87
2023-04-01T08:24:26.272Z,66.67
2023-04-01T08:27:35.712Z,65.60
2023-04-01T08:31:04.876Z,63.40
2023-04-01T08:34:14.727Z,64.23
2023-04-01T08:37:26.298Z,65.28
2023-04-01T08:40:48.449Z,64.00
2023-04-01T08:44:07.611Z,65.21
2023-04-01T08:47:30.475Z,63.13
2023-04-01T08:50:43.092Z,63.90
2023-04-01T08:53:49.457Z,63.83
2023-04-01T08:57:11.622Z,65.74
2023-04-01T09:00:33.139Z,63.77
2023-04-01T09:03:39.821Z,63.86
2023-04-01T09:06:45.272Z,62.96
2023-04-01T09:10:07.820Z,63.61
2023-04-01T09:13:18.779Z,64.30
2023-04-01T09:16:40.823Z,63.91
2023-04-01T09:19:50.183Z,63.30
2023-04-01T09:23:12.729Z,63.47
2023-04-01T09:26:25.165Z,64.01
2023-04-01T09:29:35.413Z,64.71
2023-04-01T09:33:10.442Z,64.77
2023-04-01T09:36:34.025Z,67.17
2023-04-01T09:39:38.850Z,67.11
2023-04-01T09:42:42.754Z,68.26
2023-04-01T09:46:05.119Z,69.69
2023-04-01T09:49:34.627Z,68.34
2023-04-01T09:52:46.938Z,67.75
2023-04-01T09:55:51.972Z,68.29
2023-04-01T09:59:04.785Z,69.47
2023-04-01T10:02:08.054Z,69.67
2023-04-01T10:05:11.745Z,68.58
2023-04-01T10:08:35.151Z,70.63
2023-04-01T10:12:02.314Z,69.69
2023-04-01T10:15:23.656Z,68.92
2023-04-01T10:18:46.618Z,68.78
2023-04-01T10:21:53.847Z,70.33
2023-04-01T10:25:16.025Z,70.05
2023-04-01T10:28:25.069Z,69.09
2023-04-01T10:31:52.453Z,68.94
2023-04-01T10:34:58.054Z,69.01
2023-04-01T10:38:16.276Z,69.44
2023-04-01T10:41:27.704Z,66.19
2023-04-01T10:44:36.506Z,64.44
2023-04-01T10:48:18.298Z,64.28
2023-04-01T10:51:24.603Z,65.76
2023-04-01T10:55:03.641Z,67.99
2023-04-01T10:58:18.141Z,65.32
2023-04-01T11:01:24.360Z,64.34
2023-04-01T11:04:46.423Z,63.19
2023-04-01T11:08:03.153Z,62.67
2023-04-01T11:11:13.170Z,62.44
2023-04-01T11:14:34.706Z,60.98
2023-04-01T11:17:47.082Z,60.04
2023-04-01T11:21:09.886Z,60.73
2023-04-01T11:24:39.078Z,60.88
2023-04-01T11:28:01.221Z,61.29
2023-04-01T11:31:22.863Z,61.09
2023-04-01T11:34:44.059Z,63.54
2023-04-01T11:37:47.161Z,57.59
2023-04-01T11:41:16.968Z,58.13
2023-04-01T11:44:33.579Z,58.52
2023-04-01T11:47:56.157Z,59.67
2023-04-01T11:51:08.036Z,62.24
2023-04-01T11:54:26.308Z,62.83
2023-04-01T11:57:47.915Z,62.23
2023-04-01T12:01:00.022Z,62.53
2023-04-01T12:04:21.152Z,63.40
2023-04-01T12:07:27.408Z,63.05
2023-04-01T12:10:49.347Z,62.17
2023-04-01T12:14:01.134Z,62.86
2023-04-01T12:17:07.005Z,60.55
2023-04-01T12:20:27.629Z,59.50
2023-04-01T12:23:40.941Z,58.37
2023-04-01T12:26:44.232Z,59.36
2023-04-01T12:30:00.634Z,57.47
2023-04-01T12:33:22.159Z,57.92
2023-04-01T12:36:32.732Z,57.61
2023-04-01T12:39:44.717Z,57.86
2023-04-01T12:42:56.734Z,58.65
2023-04-01T12:46:15.933Z,59.73
2023-04-01T12:49:18.698Z,60.50
2023-04-01T12:52:30.796Z,59.99
2023-04-01T12:55:47.126Z,60.66
2023-04-01T12:58:50.303Z,59.32
2023-04-01T13:02:01.940Z,58.00
2023-04-01T13:05:38.244Z,58.27
2023-04-01T13:08:46.991Z,57.96
2023-04-01T13:12:09.239Z,57.97
2023-04-01T13:15:24.124Z,57.75
2023-04-01T13:18:36.403Z,57.86
2023-04-01T13:21:42.790Z,57.40
2023-04-01T13:24:48.539Z,58.08
2023-04-01T13:28:04.328Z,57.44
2023-04-01T13:31:28.855Z,58.13
2023-04-01T13:34:38.266Z,57.74
2023-04-01T13:37:51.202Z,57.74
2023-04-01T13:41:03.920Z,58.81
2023-04-01T13:44:19.884Z,60.12
2023-04-01T13:47:34.511Z,59.12
2023-04-01T13:50:56.263Z,58.42
2023-04-01T13:54:13.422Z,59.63
2023-04-01T13:57:40.168Z,58.65
2023-04-01T14:00:56.241Z,58.46
2023-04-01T14:03:59.305Z,60.10
2023-04-01T14:07:02.635Z,62.04
2023-04-01T14:10:06.375Z,63.52
2023-04-01T14:13:15.917Z,64.51
2023-04-01T14:16:40.139Z,63.24
2023-04-01T14:19:42.683Z,63.50
2023-04-01T14:23:03.799Z,65.13
2023-04-01T14:26:14.765Z,63.39
2023-04-01T14:29:23.402Z,65.31
2023-04-01T14:32:33.084Z,63.87
2023-04-01T14:35:39.730Z,64.24
2023-04-01T14:39:09.309Z,63.52
2023-04-01T14:42:21.428Z,63.36
2023-04-01T14:45:48.145Z,62.28
2023-04-01T14:49:04.923Z,60.59
2023-04-01T14:52:13.614Z,59.10
2023-04-01T14:55:25.712Z,60.13
2023-04-01T14:58:54.808Z,59.73
2023-04-01T15:02:16.473Z,59.25
2023-04-01T15:05:33.326Z,58.68
2023-04-01T15:09:07.187Z,60.41
2023-04-01T15:12:10.072Z,58.84
2023-04-01T15:15:13.352Z,59.34
2023-04-01T15:18:23.960Z,61.13
2023-04-01T15:21:47.197Z,61.06
2023-04-01T15:25:08.679Z,60.83
2023-04-01T15:28:33.111Z,62.10
2023-04-01T15:31:42.745Z,61.89
2023-04-01T15:35:13.238Z,62.62
2023-04-01T15:38:35.388Z,61.24
2023-04-01T15:41:37.862Z,60.00
2023-04-01T15:44:53.455Z,58.50
2023-04-01T15:48:03.226Z,60.42
2023-04-01T15:51:12.014Z,60.77
2023-04-01T15:54:28.935Z,54.01
2023-04-01T15:57:50.357Z,55.17
2023-04-01T16:01:00.775Z,53.07
2023-04-01T16:04:22.458Z,53.48
2023-04-01T16:07:25.911Z,52.65
2023-04-01T16:10:28.592Z,53.69
2023-04-01T16:13:50.948Z,55.30
2023-04-01T16:17:13.520Z,53.82
2023-04-01T16:20:23.990Z,53.92
2023-04-01T16:23:45.303Z,53.43
2023-04-01T16:27:01.295Z,53.27
2023-04-01T16:30:22.946Z,54.46
2023-04-01T16:33:33.875Z,53.87
2023-04-01T16:36:43.768Z,54.42
2023-04-01T16:39:52.193Z,54.44
2023-04-01T16:42:57.496Z,55.30
2023-04-01T16:46:23.134Z,55.66
2023-04-01T16:49:34.595Z,55.67
2023-04-01T16:53:01.185Z,55.44
2023-04-01T16:56:04.039Z,56.13
2023-04-01T16:59:16.486Z,56.69
2023-04-01T17:02:23.392Z,57.34
2023-04-01T17:05:42.011Z,58.92
2023-04-01T17:08:47.995Z,58.87
2023-04-01T17:11:51.801Z,60.14
2023-04-01T17:15:15.123Z,60.07
2023-04-01T17:18:29.275Z,61.45
2023-04-01T17:21:48.481Z,60.62
2023-04-01T17:25:00.335Z,62.65
2023-04-01T17:28:15.274Z,63.60
2023-04-01T17:31:27.255Z,63.69
2023-04-01T17:34:32.985Z,63.81
2023-04-01T17:37:53.474Z,65.34
2023-04-01T17:41:09.060Z,65.99
2023-04-01T17:44:26.887Z,66.39
2023-04-01T17:47:46.739Z,68.58
2023-04-01T17:50:53.719Z,70.03
2023-04-01T17:54:07.577Z,71.01
2023-04-01T17:57:11.038Z,72.59
2023-04-01T18:00:13.675Z,72.08
2023-04-01T18:03:28.458Z,72.58
2023-04-01T18:06:35.576Z,73.45
2023-04-01T18:09:47.305Z,74.29
2023-04-01T18:13:02.128Z,74.19
2023-04-01T18:16:08.117Z,75.29
2023-04-01T18:19:22.910Z,75.68
2023-04-01T18:22:28.615Z,76.45
2023-04-01T18:25:43.235Z,78.33
2023-04-01T18:28:57.827Z,78.12
2023-04-01T18:32:10.316Z,79.45
2023-04-01T18:35:46.986Z,80.33
2023-04-01T18:38:49.603Z,80.48
2023-04-01T18:42:16.301Z,81.22
2023-04-01T18:45:29.427Z,81.54
2023-04-01T18:48:53.692Z,82.72
2023-04-01T18:51:59.295Z,83.88
2023-04-01T18:55:08.836Z,84.02
2023-04-01T18:58:25.006Z,84.98
2023-04-01T19:01:36.199Z,86.03
2023-04-01T19:04:42.104Z,86.12
2023-04-01T19:07:47.100Z,86.04
2023-04-01T19:11:03.887Z,85.63
2023-04-01T19:14:24.166Z,85.91
2023-04-01T19:17:39.124Z,85.93
2023-04-01T19:20:44.568Z,85.25
2023-04-01T19:24:00.641Z,86.87
2023-04-01T19:27:21.641Z,86.55
2023-04-01T19:30:30.741Z,86.34
2023-04-01T19:33:40.023Z,88.21
2023-04-01T19:36:51.465Z,87.36
2023-04-01T19:40:03.570Z,89.90
2023-04-01T19:43:24.835Z,89.10
2023-04-01T19:46:36.629Z,90.20
2023-04-01T19:49:52.783Z,89.70
2023-04-01T19:52:56.574Z,89.59
2023-04-01T19:56:08.683Z,91.04
2023-04-01T19:59:15.685Z,93.26
2023-04-01T20:02:41.589Z,92.54
2023-04-01T20:05:45.198Z,92.79
2023-04-01T20:08:51.045Z,94.37
2023-04-01T20:12:00.394Z,95.56
2023-04-01T20:15:20.777Z,97.29
2023-04-01T20:18:44.949Z,97.53
2023-04-01T20:21:49.414Z,99.33
2023-04-01T20:24:53.129Z,100.00
2023-04-01T20:28:14.431Z,100.00
2023-04-01T20:31:38.423Z,100.00
2023-04-01T20:35:07.826Z,100.00
2023-04-01T20:38:10.704Z,100.00
2023-04-01T20:41:21.288Z,100.00
2023-04-01T20:44:36.766Z,100.00
2023-04-01T20:47:59.888Z,100.00
2023-04-01T20:51:07.515Z,100.00
2023-04-01T20:54:25.064Z,100.00
2023-04-01T20:57:34.129Z,100.00
2023-04-01T21:00:36.759Z,100.00
2023-04-01T21:03:57.865Z,100.00
2023-04-01T21:07:18.533Z,100.00
2023-04-01T21:10:33.293Z,100.00
2023-04-01T21:13:55.405Z,100.00
2023-04-01T21:17:07.280Z,100.00
2023-04-01T21:20:10.883Z,100.00
2023-04-01T21:23:22.980Z,100.00
2023-04-01T21:26:34.059Z,100.00
2023-04-01T21:29:57.873Z,100.00
2023-04-01T21:33:10.310Z,100.00
2023-04-01T21:36:31.198Z,100.00
2023-04-01T21:39:45.853Z,100.00
2023-04-01T21:43:07.162Z,100.00
2023-04-01T21:46:09.852Z,100.00
2023-04-01T21:49:30.959Z,100.00
2023-04-01T21:52:33.158Z,100.00
2023-04-01T21:55:35.892Z,100.00
2023-04-01T21:58:44.869Z,100.00
2023-04-01T22:02:06.523Z,100.00
2023-04-01T22:05:09.321Z,100.00
2023-04-01T22:08:30.745Z,100.00
2023-04-01T22:11:55.823Z,100.00
2023-04-01T22:15:13.936Z,100.00
2023-04-01T22:18:24.384Z,100.00
2023-04-01T22:21:28.570Z,100.00
2023-04-01T22:24:36.249Z,100.00
2023-04-01T22:27:51.918Z,100.00
2023-04-01T22:30:58.098Z,100.00
2023-04-01T22:34:22.900Z,100.00
2023-04-01T22:37:31.971Z,99.30
2023-04-01T22:40:49.565Z,98.01
2023-04-01T22:43:52.757Z,96.48
2023-04-01T22:47:02.215Z,96.14
2023-04-01T22:50:20.636Z,97.33
2023-04-01T22:53:26.829Z,98.01
2023-04-01T22:56:33.488Z,97.93
2023-04-01T22:59:54.490Z,98.86
2023-04-01T23:03:07.748Z,99.86
2023-04-01T23:06:17.089Z,99.24
2023-04-01T23:09:24.167Z,96.81
2023-04-01T23:12:28.719Z,95.51
2023-04-01T23:15:32.227Z,94.18
2023-04-01T23:18:52.017Z,95.08
2023-04-01T23:22:08.281Z,94.84
2023-04-01T23:25:40.561Z,97.30
2023-04-01T23:28:46.379Z,94.40
2023-04-01T23:31:51.407Z,94.05
2023-04-01T23:35:00.027Z,92.39
2023-04-01T23:38:04.083Z,92.82
2023-04-01T23:41:07.606Z,93.11
2023-04-01T23:44:12.086Z,91.88
2023-04-01T23:47:17.983Z,94.36
2023-04-01T23:50:22.602Z,94.40
2023-04-01T23:53:30.829Z,95.78
2023-04-01T23:56:40.873Z,96.71
2023-04-01T23:59:43.473Z,97.68
